createdAt,value
2022-11-30T00:01:12.487Z,72.18
2022-11-30T00:03:39.341Z,74.32
2022-11-30T00:06:08.215Z,74.65
2022-11-30T00:08:34.890Z,76.22
2022-11-30T00:11:08.121Z,73.15
2022-11-30T00:13:34.841Z,74.40
2022-11-30T00:16:01.804Z,75.30
2022-11-30T00:18:28.562Z,76.20
2022-11-30T00:20:55.260Z,76.07
2022-11-30T00:23:21.907Z,75.28
2022-11-30T00:25:48.552Z,74.43
2022-11-30T00:28:15.226Z,74.15
2022-11-30T00:30:41.898Z,76.30
2022-11-30T00:33:08.588Z,74.78
2022-11-30T00:35:35.273Z,73.97
2022-11-30T00:38:02.621Z,73.10
2022-11-30T00:40:29.236Z,73.82
2022-11-30T00:42:55.908Z,75.93
2022-11-30T00:45:22.554Z,73.50
2022-11-30T00:47:49.208Z,73.78
2022-11-30T00:50:16.016Z,76.78
2022-11-30T00:52:42.729Z,74.60
2022-11-30T00:55:09.803Z,76.47
2022-11-30T00:57:36.539Z,77.22
2022-11-30T01:00:03.838Z,76.50
2022-11-30T01:02:30.565Z,77.68
2022-11-30T01:04:57.281Z,77.45
2022-11-30T01:07:24.020Z,77.15
2022-11-30T01:09:50.753Z,76.57
2022-11-30T01:12:17.554Z,78.82
2022-11-30T01:14:44.587Z,78.28
2022-11-30T01:17:11.521Z,77.25
2022-11-30T01:19:38.219Z,75.75
2022-11-30T01:22:04.859Z,77.57
2022-11-30T01:24:31.503Z,77.45
2022-11-30T01:26:58.185Z,79.20
2022-11-30T01:29:24.854Z,79.30
2022-11-30T01:31:51.637Z,78.05
2022-11-30T01:34:18.382Z,77.78
2022-11-30T01:36:45.040Z,78.53
2022-11-30T01:39:11.991Z,79.13
2022-11-30T01:41:38.731Z,78.03
2022-11-30T01:44:05.341Z,78.35
2022-11-30T01:46:40.476Z,78.40
2022-11-30T01:49:10.246Z,78.50
2022-11-30T01:52:00.583Z,77.25
2022-11-30T01:54:33.622Z,76.90
2022-11-30T01:57:06.781Z,79.88
2022-11-30T01:59:33.785Z,78.43
2022-11-30T02:02:00.565Z,77.95
2022-11-30T02:04:34.335Z,77.55
2022-11-30T02:07:02.927Z,79.13
2022-11-30T02:09:31.580Z,77.68
2022-11-30T02:11:59.119Z,77.75
2022-11-30T02:14:34.524Z,78.22
2022-11-30T02:17:20.091Z,77.82
2022-11-30T02:20:08.054Z,78.30
2022-11-30T02:23:26.307Z,79.00
2022-11-30T02:26:22.054Z,78.03
2022-11-30T02:29:06.306Z,79.10
2022-11-30T02:32:05.890Z,79.32
2022-11-30T02:34:35.559Z,77.75
2022-11-30T02:37:03.418Z,76.68
2022-11-30T02:39:30.237Z,77.80
2022-11-30T02:41:56.953Z,75.28
2022-11-30T02:44:24.530Z,79.00
2022-11-30T02:46:54.122Z,77.28
2022-11-30T02:49:33.216Z,78.47
2022-11-30T02:52:02.420Z,77.68
2022-11-30T02:54:29.166Z,76.35
2022-11-30T02:56:55.844Z,78.03
2022-11-30T02:59:22.532Z,78.22
2022-11-30T03:01:49.240Z,77.82
2022-11-30T03:04:15.929Z,77.72
2022-11-30T03:06:42.628Z,77.38
2022-11-30T03:09:09.385Z,76.93
2022-11-30T03:11:36.139Z,78.20
2022-11-30T03:14:03.414Z,77.97
2022-11-30T03:16:30.064Z,77.10
2022-11-30T03:18:58.107Z,76.70
2022-11-30T03:21:25.081Z,77.40
2022-11-30T03:23:51.729Z,78.20
2022-11-30T03:26:18.501Z,79.10
2022-11-30T03:28:45.292Z,77.30
2022-11-30T03:31:13.411Z,78.55
2022-11-30T03:33:43.707Z,77.60
2022-11-30T03:36:11.915Z,79.03
2022-11-30T03:38:39.078Z,78.85
2022-11-30T03:41:08.640Z,78.72
2022-11-30T03:43:36.060Z,77.70
2022-11-30T03:46:03.534Z,79.07
2022-11-30T03:48:30.441Z,76.53
2022-11-30T03:50:57.446Z,79.65
2022-11-30T03:53:25.283Z,77.35
2022-11-30T03:55:54.136Z,80.55
2022-11-30T03:58:21.185Z,79.32
2022-11-30T04:00:47.987Z,80.35
2022-11-30T04:03:14.762Z,78.65
2022-11-30T04:05:41.493Z,80.68
2022-11-30T04:08:08.342Z,80.20
2022-11-30T04:10:35.006Z,81.07
2022-11-30T04:13:01.641Z,79.13
2022-11-30T04:15:28.314Z,79.82
2022-11-30T04:17:54.959Z,80.50
2022-11-30T04:20:23.837Z,80.03
2022-11-30T04:22:50.539Z,79.97
2022-11-30T04:25:17.350Z,79.55
2022-11-30T04:27:45.873Z,79.15
2022-11-30T04:30:13.174Z,81.07
2022-11-30T04:32:39.898Z,78.30
2022-11-30T04:35:06.883Z,80.38
2022-11-30T04:37:33.510Z,79.18
2022-11-30T04:40:00.286Z,79.07
2022-11-30T04:42:26.916Z,82.05
2022-11-30T04:44:53.577Z,81.13
2022-11-30T04:47:20.338Z,79.70
2022-11-30T04:49:47.209Z,78.85
2022-11-30T04:52:13.929Z,79.22
2022-11-30T04:54:40.632Z,79.88
2022-11-30T04:57:07.352Z,80.15
2022-11-30T04:59:34.036Z,81.82
2022-11-30T05:02:00.835Z,80.28
2022-11-30T05:04:29.189Z,80.70
2022-11-30T05:06:56.031Z,83.13
2022-11-30T05:09:22.826Z,81.50
2022-11-30T05:11:51.179Z,80.28
2022-11-30T05:14:17.843Z,80.13
2022-11-30T05:16:47.524Z,81.20
2022-11-30T05:19:14.348Z,80.38
2022-11-30T05:21:45.606Z,81.13
2022-11-30T05:24:12.713Z,81.90
2022-11-30T05:26:39.697Z,81.28
2022-11-30T05:29:06.833Z,81.30
2022-11-30T05:31:34.179Z,81.88
2022-11-30T05:34:00.883Z,80.45
2022-11-30T05:36:27.533Z,82.68
2022-11-30T05:38:54.332Z,79.75
2022-11-30T05:41:21.094Z,83.43
2022-11-30T05:43:47.753Z,84.45
2022-11-30T05:46:14.594Z,82.60
2022-11-30T05:48:41.303Z,83.13
2022-11-30T05:51:13.378Z,82.35
2022-11-30T05:53:40.149Z,80.97
2022-11-30T05:56:10.703Z,82.82
2022-11-30T05:58:39.905Z,82.03
2022-11-30T06:01:06.943Z,81.82
2022-11-30T06:03:34.829Z,80.93
2022-11-30T06:06:04.344Z,81.68
2022-11-30T06:08:31.805Z,80.32
2022-11-30T06:11:01.081Z,82.20
2022-11-30T06:13:29.076Z,80.97
2022-11-30T06:15:59.372Z,79.55
2022-11-30T06:18:26.292Z,80.05
2022-11-30T06:20:52.972Z,80.05
2022-11-30T06:23:19.661Z,81.53
2022-11-30T06:25:46.369Z,79.60
2022-11-30T06:28:13.125Z,78.80
2022-11-30T06:30:39.828Z,78.50
2022-11-30T06:33:06.551Z,79.53
2022-11-30T06:35:33.287Z,78.65
2022-11-30T06:38:00.132Z,79.05
2022-11-30T06:40:27.120Z,78.35
2022-11-30T06:42:54.752Z,77.57
2022-11-30T06:45:21.477Z,78.78
2022-11-30T06:47:48.102Z,79.78
2022-11-30T06:50:14.794Z,76.63
2022-11-30T06:52:41.522Z,77.72
2022-11-30T06:55:08.495Z,77.43
2022-11-30T06:57:35.163Z,77.78
2022-11-30T07:00:01.988Z,76.93
2022-11-30T07:02:28.617Z,78.57
2022-11-30T07:04:55.316Z,78.93
2022-11-30T07:07:22.156Z,76.80
2022-11-30T07:09:49.920Z,76.68
2022-11-30T07:12:17.019Z,76.07
2022-11-30T07:14:43.735Z,75.18
2022-11-30T07:17:10.429Z,76.72
2022-11-30T07:19:37.090Z,76.53
2022-11-30T07:22:04.273Z,77.95
2022-11-30T07:24:30.933Z,74.55
2022-11-30T07:27:00.325Z,75.78
2022-11-30T07:29:27.152Z,76.18
2022-11-30T07:31:54.699Z,75.80
2022-11-30T07:34:23.660Z,74.50
2022-11-30T07:36:50.431Z,74.72
2022-11-30T07:39:17.097Z,75.43
2022-11-30T07:41:43.797Z,75.97
2022-11-30T07:44:11.256Z,77.15
2022-11-30T07:46:38.740Z,74.53
2022-11-30T07:49:06.750Z,75.63
2022-11-30T07:51:33.859Z,74.28
2022-11-30T07:54:00.930Z,75.60
2022-11-30T07:56:31.165Z,74.85
2022-11-30T07:58:59.993Z,74.28
2022-11-30T08:01:29.993Z,75.30
2022-11-30T08:03:57.439Z,74.93
2022-11-30T08:06:27.340Z,76.68
2022-11-30T08:08:58.008Z,75.22
2022-11-30T08:11:27.608Z,75.35
2022-11-30T08:13:54.390Z,73.85
2022-11-30T08:16:26.775Z,74.43
2022-11-30T08:18:55.868Z,76.50
2022-11-30T08:21:23.494Z,75.10
2022-11-30T08:23:52.593Z,76.40
2022-11-30T08:26:20.651Z,78.00
2022-11-30T08:28:49.691Z,75.68
2022-11-30T08:31:20.115Z,75.60
2022-11-30T08:33:47.061Z,77.05
2022-11-30T08:36:15.047Z,77.60
2022-11-30T08:38:43.363Z,76.53
2022-11-30T08:41:12.076Z,74.07
2022-11-30T08:43:39.253Z,73.00
2022-11-30T08:46:27.401Z,74.53
2022-11-30T08:49:12.612Z,74.47
2022-11-30T08:54:28.289Z,73.20
2022-11-30T08:56:54.985Z,71.35
2022-11-30T08:59:21.650Z,74.43
2022-11-30T09:01:48.550Z,72.18
2022-11-30T09:04:15.259Z,70.78
2022-11-30T09:06:47.784Z,71.03
2022-11-30T09:09:14.493Z,71.32
2022-11-30T09:11:41.625Z,72.25
2022-11-30T09:14:09.796Z,74.47
2022-11-30T09:16:36.663Z,72.65
2022-11-30T09:19:03.731Z,71.32
2022-11-30T09:21:30.620Z,72.53
2022-11-30T09:23:57.686Z,71.05
2022-11-30T09:26:24.374Z,73.90
2022-11-30T09:28:52.957Z,70.95
2022-11-30T09:31:22.624Z,71.78
2022-11-30T09:33:49.372Z,71.00
2022-11-30T09:36:19.018Z,71.88
2022-11-30T09:38:46.310Z,71.90
2022-11-30T09:41:38.162Z,70.13
2022-11-30T09:44:21.658Z,71.72
2022-11-30T09:46:59.456Z,72.95
2022-11-30T09:49:39.366Z,71.43
2022-11-30T09:52:13.724Z,69.28
2022-11-30T09:54:42.935Z,69.00
2022-11-30T09:57:34.520Z,69.65
2022-11-30T10:00:09.977Z,72.18
2022-11-30T10:02:38.382Z,69.38
2022-11-30T10:05:16.425Z,69.13
2022-11-30T10:08:11.350Z,69.65
2022-11-30T10:10:48.032Z,69.05
2022-11-30T10:13:58.192Z,72.32
2022-11-30T10:16:45.123Z,68.80
2022-11-30T10:19:56.953Z,68.78
2022-11-30T10:22:59.020Z,68.38
2022-11-30T10:25:39.817Z,68.22
2022-11-30T10:28:24.273Z,68.82
2022-11-30T10:30:53.146Z,68.93
2022-11-30T10:33:27.347Z,68.43
2022-11-30T10:35:58.184Z,71.53
2022-11-30T10:38:30.508Z,68.55
2022-11-30T10:41:24.661Z,67.25
2022-11-30T10:43:51.315Z,65.53
2022-11-30T10:46:32.471Z,67.93
2022-11-30T10:49:06.866Z,64.85
2022-11-30T10:51:37.450Z,69.10
2022-11-30T10:54:16.118Z,65.78
2022-11-30T10:56:43.825Z,66.30
2022-11-30T10:59:22.490Z,66.50
2022-11-30T11:01:49.542Z,66.97
2022-11-30T11:04:21.172Z,66.28
2022-11-30T11:06:49.928Z,65.53
2022-11-30T11:09:23.422Z,67.45
2022-11-30T11:11:54.806Z,68.10
2022-11-30T11:14:24.390Z,67.32
2022-11-30T11:17:03.030Z,65.63
2022-11-30T11:19:41.378Z,67.55
2022-11-30T11:22:21.297Z,68.43
2022-11-30T11:24:50.094Z,68.07
2022-11-30T11:27:21.412Z,68.95
2022-11-30T11:29:58.149Z,66.63
2022-11-30T11:32:25.087Z,69.10
2022-11-30T11:34:52.271Z,67.63
2022-11-30T11:37:32.682Z,67.78
2022-11-30T11:40:14.125Z,69.05
2022-11-30T11:42:53.198Z,67.05
2022-11-30T11:45:25.796Z,67.35
2022-11-30T11:48:06.936Z,70.40
2022-11-30T11:51:06.208Z,71.35
2022-11-30T11:53:39.401Z,69.03
2022-11-30T11:56:16.717Z,69.25
2022-11-30T11:59:04.548Z,68.60
2022-11-30T12:01:47.763Z,69.40
2022-11-30T12:04:29.314Z,71.15
2022-11-30T12:06:58.579Z,70.38
2022-11-30T12:09:31.117Z,67.70
2022-11-30T12:11:57.810Z,68.13
2022-11-30T12:14:25.938Z,70.35
2022-11-30T12:16:58.511Z,68.57
2022-11-30T12:19:55.568Z,71.78
2022-11-30T12:23:00.225Z,72.13
2022-11-30T12:25:30.451Z,71.75
2022-11-30T12:28:25.054Z,73.38
2022-11-30T12:31:12.543Z,75.18
2022-11-30T12:33:57.552Z,76.43
2022-11-30T12:36:49.789Z,78.10
2022-11-30T12:39:24.826Z,79.75
2022-11-30T12:42:17.703Z,80.50
2022-11-30T12:45:15.979Z,82.60
2022-11-30T12:48:10.668Z,82.88
2022-11-30T12:50:50.895Z,84.10
2022-11-30T12:53:56.815Z,86.47
2022-11-30T12:56:42.883Z,100.30
2022-11-30T12:59:19.039Z,87.47
2022-11-30T13:02:04.916Z,85.13
2022-11-30T13:05:06.678Z,84.45
2022-11-30T13:07:51.770Z,84.80
2022-11-30T13:10:32.759Z,82.38
2022-11-30T13:13:01.022Z,80.05
2022-11-30T13:15:30.647Z,81.13
2022-11-30T13:17:57.680Z,79.10
2022-11-30T13:20:48.521Z,78.18
2022-11-30T13:23:36.214Z,79.38
2022-11-30T13:26:29.828Z,82.60
2022-11-30T13:29:24.243Z,82.40
2022-11-30T13:32:22.272Z,82.05
2022-11-30T13:35:36.121Z,83.78
2022-11-30T13:41:09.203Z,82.82
2022-11-30T13:43:47.705Z,82.45
2022-11-30T13:46:21.147Z,83.68
2022-11-30T13:48:48.488Z,86.70
2022-11-30T13:51:36.290Z,87.95
2022-11-30T13:54:28.436Z,90.35
2022-11-30T13:56:55.316Z,91.28
2022-11-30T13:59:21.955Z,90.93
2022-11-30T14:01:49.435Z,92.43
2022-11-30T14:04:19.172Z,94.35
2022-11-30T14:06:51.289Z,89.80
2022-11-30T14:09:40.462Z,93.28
2022-11-30T14:12:31.879Z,93.50
2022-11-30T14:14:59.662Z,97.00
2022-11-30T14:17:28.758Z,98.68
2022-11-30T14:20:16.909Z,96.88
2022-11-30T14:22:44.061Z,97.30
2022-11-30T14:25:20.155Z,98.07
2022-11-30T14:27:50.839Z,96.45
2022-11-30T14:30:20.573Z,97.53
2022-11-30T14:32:55.507Z,97.82
2022-11-30T14:35:22.855Z,101.78
2022-11-30T14:37:58.349Z,99.63
2022-11-30T14:40:27.758Z,100.63
2022-11-30T14:43:00.087Z,101.10
2022-11-30T14:45:32.823Z,100.68
2022-11-30T14:48:07.100Z,100.90
2022-11-30T14:50:35.635Z,101.20
2022-11-30T14:53:14.559Z,100.18
2022-11-30T14:55:57.331Z,99.75
2022-11-30T14:58:40.812Z,94.78
2022-11-30T15:01:18.221Z,92.25
2022-11-30T15:03:45.517Z,92.20
2022-11-30T15:06:18.215Z,91.72
2022-11-30T15:08:53.110Z,91.53
2022-11-30T15:11:21.041Z,91.30
2022-11-30T15:13:53.280Z,89.32
2022-11-30T15:16:29.620Z,93.45
2022-11-30T15:18:58.720Z,91.85
2022-11-30T15:21:32.191Z,91.40
2022-11-30T15:24:01.344Z,92.68
2022-11-30T15:26:28.088Z,91.30
2022-11-30T15:29:04.113Z,90.20
2022-11-30T15:31:38.076Z,89.35
2022-11-30T15:34:06.488Z,89.07
2022-11-30T15:36:38.142Z,90.22
2022-11-30T15:39:08.011Z,93.63
2022-11-30T15:41:35.804Z,91.43
2022-11-30T15:44:02.521Z,89.53
2022-11-30T15:46:44.462Z,89.60
2022-11-30T15:49:12.887Z,91.53
2022-11-30T15:51:42.059Z,91.53
2022-11-30T15:54:08.722Z,91.57
2022-11-30T15:56:35.562Z,91.18
2022-11-30T15:59:20.455Z,92.85
2022-11-30T16:01:53.254Z,93.25
2022-11-30T16:04:20.002Z,92.22
2022-11-30T16:06:48.124Z,94.38
2022-11-30T16:09:28.099Z,93.15
2022-11-30T16:11:57.526Z,91.03
2022-11-30T16:14:24.375Z,89.95
2022-11-30T16:16:51.784Z,94.90
2022-11-30T16:19:18.538Z,89.05
2022-11-30T16:21:45.363Z,88.80
2022-11-30T16:24:14.565Z,87.93
2022-11-30T16:26:52.496Z,91.45
2022-11-30T16:29:19.916Z,88.18
2022-11-30T16:31:46.730Z,88.20
2022-11-30T16:34:13.418Z,89.10
2022-11-30T16:36:40.102Z,90.22
2022-11-30T16:39:06.952Z,89.40
2022-11-30T16:41:35.099Z,89.43
2022-11-30T16:44:01.809Z,88.45
2022-11-30T16:46:29.439Z,90.00
2022-11-30T16:48:56.413Z,88.65
2022-11-30T16:51:27.167Z,88.35
2022-11-30T16:53:54.598Z,88.50
2022-11-30T16:56:21.839Z,88.25
2022-11-30T16:58:48.718Z,90.65
2022-11-30T17:01:21.090Z,90.10
2022-11-30T17:03:50.661Z,90.32
2022-11-30T17:06:23.444Z,88.43
2022-11-30T17:08:50.539Z,99.20
2022-11-30T17:11:24.813Z,90.50
2022-11-30T17:13:51.479Z,89.20
2022-11-30T17:16:18.184Z,87.07
2022-11-30T17:18:44.877Z,87.38
2022-11-30T17:21:17.687Z,87.45
2022-11-30T17:23:45.197Z,88.15
2022-11-30T17:26:12.845Z,89.78
2022-11-30T17:28:39.989Z,88.88
2022-11-30T17:31:06.944Z,89.90
2022-11-30T17:33:34.596Z,88.63
2022-11-30T17:36:06.798Z,88.78
2022-11-30T17:38:35.432Z,94.15
2022-11-30T17:41:10.394Z,92.05
2022-11-30T17:43:38.926Z,91.35
2022-11-30T17:46:16.418Z,92.07
2022-11-30T17:48:43.996Z,91.00
2022-11-30T17:51:11.666Z,90.00
2022-11-30T17:53:39.837Z,89.80
2022-11-30T17:56:09.218Z,88.03
2022-11-30T17:58:43.715Z,89.60
2022-11-30T18:01:21.599Z,90.43
2022-11-30T18:03:49.424Z,88.05
2022-11-30T18:06:16.765Z,86.60
2022-11-30T18:08:44.099Z,88.22
2022-11-30T18:11:13.173Z,85.80
2022-11-30T18:13:40.261Z,86.25
2022-11-30T18:16:15.007Z,87.32
2022-11-30T18:18:47.452Z,87.93
2022-11-30T18:21:17.289Z,87.65
2022-11-30T18:23:44.228Z,86.38
2022-11-30T18:26:13.380Z,86.97
2022-11-30T18:28:40.590Z,85.53
2022-11-30T18:31:07.552Z,85.18
2022-11-30T18:33:35.151Z,86.03
2022-11-30T18:36:03.793Z,85.35
2022-11-30T18:38:34.296Z,85.10
2022-11-30T18:41:04.453Z,85.97
2022-11-30T18:43:31.120Z,82.63
2022-11-30T18:46:09.052Z,82.50
2022-11-30T18:48:37.370Z,80.97
2022-11-30T18:51:17.714Z,77.70
2022-11-30T18:53:45.076Z,78.22
2022-11-30T18:56:19.402Z,80.50
2022-11-30T18:58:47.534Z,81.45
2022-11-30T19:01:17.100Z,83.93
2022-11-30T19:03:48.830Z,85.32
2022-11-30T19:06:15.519Z,85.93
2022-11-30T19:08:42.244Z,84.90
2022-11-30T19:11:10.122Z,85.60
2022-11-30T19:13:36.863Z,82.15
2022-11-30T19:16:05.689Z,83.80
2022-11-30T19:18:32.902Z,85.18
2022-11-30T19:20:59.826Z,86.32
2022-11-30T19:23:29.489Z,94.18
2022-11-30T19:26:00.425Z,87.20
2022-11-30T19:28:29.254Z,85.90
2022-11-30T19:30:56.724Z,88.05
2022-11-30T19:33:23.509Z,87.47
2022-11-30T19:35:50.208Z,88.93
2022-11-30T19:38:16.983Z,91.93
2022-11-30T19:40:43.652Z,89.55
2022-11-30T19:43:10.440Z,89.65
2022-11-30T19:45:41.500Z,86.63
2022-11-30T19:48:08.607Z,89.25
2022-11-30T19:50:36.799Z,88.75
2022-11-30T19:53:03.736Z,88.43
2022-11-30T19:55:30.520Z,88.70
2022-11-30T19:57:57.392Z,90.47
2022-11-30T20:00:24.263Z,94.55
2022-11-30T20:02:51.221Z,89.38
2022-11-30T20:05:18.263Z,88.05
2022-11-30T20:07:45.095Z,87.88
2022-11-30T20:10:12.375Z,86.78
2022-11-30T20:12:40.251Z,86.22
2022-11-30T20:15:08.031Z,85.20
2022-11-30T20:17:35.039Z,87.25
2022-11-30T20:20:01.923Z,84.15
2022-11-30T20:22:28.672Z,82.95
2022-11-30T20:24:55.528Z,85.75
2022-11-30T20:27:22.329Z,86.53
2022-11-30T20:29:50.299Z,86.60
2022-11-30T20:32:17.342Z,87.65
2022-11-30T20:34:44.153Z,85.25
2022-11-30T20:37:11.661Z,83.82
2022-11-30T20:39:42.600Z,86.22
2022-11-30T20:42:12.171Z,83.75
2022-11-30T20:44:38.810Z,84.35
2022-11-30T20:47:05.623Z,84.95
2022-11-30T20:49:32.248Z,83.72
2022-11-30T20:51:58.978Z,83.35
2022-11-30T20:54:25.649Z,85.95
2022-11-30T20:56:52.323Z,83.32
2022-11-30T20:59:19.388Z,81.78
2022-11-30T21:01:47.025Z,83.40
2022-11-30T21:04:13.781Z,83.97
2022-11-30T21:06:40.432Z,82.72
2022-11-30T21:09:07.118Z,82.95
2022-11-30T21:11:33.804Z,80.75
2022-11-30T21:14:00.475Z,83.18
2022-11-30T21:16:29.087Z,79.68
2022-11-30T21:18:58.116Z,82.47
2022-11-30T21:21:26.306Z,82.18
2022-11-30T21:23:53.299Z,81.63
2022-11-30T21:26:29.956Z,81.43
2022-11-30T21:29:01.028Z,82.43
2022-11-30T21:31:27.824Z,82.50
2022-11-30T21:33:54.803Z,82.50
2022-11-30T21:36:22.593Z,84.22
2022-11-30T21:39:04.415Z,82.28
2022-11-30T21:41:33.691Z,80.38
2022-11-30T21:44:00.407Z,83.65
2022-11-30T21:46:27.132Z,83.63
2022-11-30T21:48:53.977Z,83.20
2022-11-30T21:51:23.112Z,83.20
2022-11-30T21:53:52.388Z,83.90
2022-11-30T21:56:21.495Z,84.13
2022-11-30T21:58:50.006Z,81.55
2022-11-30T22:01:30.499Z,81.00
2022-11-30T22:03:58.568Z,81.40
2022-11-30T22:06:27.314Z,80.38
2022-11-30T22:08:56.874Z,80.90
2022-11-30T22:11:23.644Z,79.43
2022-11-30T22:13:52.505Z,78.05
2022-11-30T22:16:20.318Z,83.18
2022-11-30T22:18:47.544Z,75.93
2022-11-30T22:21:16.765Z,78.15
2022-11-30T22:23:45.743Z,77.35
2022-11-30T22:26:15.325Z,77.72
2022-11-30T22:28:50.622Z,79.93
2022-11-30T22:31:18.988Z,78.68
2022-11-30T22:33:46.318Z,75.22
2022-11-30T22:36:19.117Z,78.00
2022-11-30T22:38:47.171Z,72.90
2022-11-30T22:41:16.599Z,80.57
2022-11-30T22:43:45.970Z,70.93
2022-11-30T22:46:16.816Z,73.38
2022-11-30T22:48:44.468Z,75.20
2022-11-30T22:51:13.260Z,73.15
2022-11-30T22:53:40.916Z,75.07
2022-11-30T22:56:13.004Z,75.60
2022-11-30T22:58:40.923Z,75.75
2022-11-30T23:01:10.347Z,73.93
2022-11-30T23:03:37.915Z,74.15
2022-11-30T23:06:06.025Z,76.03
2022-11-30T23:08:33.178Z,76.28
2022-11-30T23:11:05.061Z,74.40
2022-11-30T23:13:32.320Z,75.55
2022-11-30T23:15:59.667Z,76.72
2022-11-30T23:18:32.763Z,78.43
2022-11-30T23:21:09.035Z,77.30
2022-11-30T23:23:35.689Z,79.25
2022-11-30T23:26:12.792Z,79.57
2022-11-30T23:28:41.272Z,81.70
2022-11-30T23:31:33.717Z,79.47
2022-11-30T23:34:01.047Z,79.90
2022-11-30T23:36:28.089Z,82.65
2022-11-30T23:38:57.737Z,81.18
2022-11-30T23:41:25.545Z,79.47
2022-11-30T23:43:52.497Z,77.35
2022-11-30T23:46:19.436Z,76.35
2022-11-30T23:48:46.176Z,73.60
2022-11-30T23:51:12.838Z,72.70
2022-11-30T23:53:39.614Z,75.03
2022-11-30T23:56:08.772Z,70.47
2022-11-30T23:58:35.487Z,70.53
